Time;durP1;ratioP1;P1;durP2;ratioP2;P2;SDS_P1;SDS_P2;PMS_P1;PMS_P2;Temp;Humidity;BMP_temperature;BMP_pressure;BME280_temperature;BME280_humidity;BME280_pressure;Samples;Min_cycle;Max_cycle;Signal;HPM_P1;HPM_P2
2023/12/03 00:00:55;;;;;;;14.15;7.82;;;;;;;0.84;100.00;99619.00;5093406;28;20489;-42
2023/12/03 00:03:24;;;;;;;15.77;8.57;;;;;;;0.84;100.00;99619.00;5093364;28;20048;-42
2023/12/03 00:05:53;;;;;;;14.77;8.13;;;;;;;0.93;100.00;99634.47;5092838;28;20040;-41
2023/12/03 00:08:24;;;;;;;13.02;7.25;;;;;;;0.86;100.00;99653.94;5092297;28;20048;-42
2023/12/03 00:11:10;;;;;;;13.40;7.57;;;;;;;0.70;100.00;99648.31;5092968;28;20040;-42
2023/12/03 00:13:39;;;;;;;13.27;7.30;;;;;;;0.57;100.00;99679.28;5093414;28;20480;-42
2023/12/03 00:16:09;;;;;;;15.07;8.07;;;;;;;0.70;100.00;99677.19;5092540;28;20048;-41
2023/12/03 00:18:39;;;;;;;14.20;7.88;;;;;;;0.82;100.00;99695.19;5093220;28;20052;-40
2023/12/03 00:21:08;;;;;;;14.75;8.10;;;;;;;0.69;100.00;99713.97;5093388;28;20052;-43
2023/12/03 00:23:38;;;;;;;13.52;7.47;;;;;;;0.80;100.00;99722.41;5093777;28;20075;-42
2023/12/03 00:26:07;;;;;;;13.43;8.23;;;;;;;0.85;100.00;99728.34;5089336;28;20165;-44
2023/12/03 00:28:38;;;;;;;16.63;8.40;;;;;;;0.85;100.00;99717.84;5092380;28;20052;-41
2023/12/03 00:31:07;;;;;;;13.57;7.32;;;;;;;0.70;100.00;99723.56;5092183;28;20055;-42
2023/12/03 00:33:35;;;;;;;13.27;8.02;;;;;;;0.70;100.00;99710.44;5092769;28;20505;-41
2023/12/03 00:36:04;;;;;;;14.40;8.20;;;;;;;0.81;100.00;99713.63;5092104;28;20066;-41
2023/12/03 00:38:33;;;;;;;11.30;7.18;;;;;;;0.77;100.00;99723.34;5092333;28;20043;-41
2023/12/03 00:41:01;;;;;;;12.80;7.75;;;;;;;0.85;100.00;99734.47;5092017;28;20048;-42
2023/12/03 00:43:31;;;;;;;12.18;7.00;;;;;;;0.95;100.00;99729.81;5091990;28;20051;-41
2023/12/03 00:46:04;;;;;;;14.07;8.00;;;;;;;1.00;100.00;99741.06;5092130;28;20048;-41
2023/12/03 00:48:32;;;;;;;13.52;7.63;;;;;;;0.83;100.00;99738.06;5092302;28;20072;-41
2023/12/03 00:51:01;;;;;;;12.23;7.15;;;;;;;0.69;100.00;99748.09;5092066;28;20044;-42
2023/12/03 00:53:29;;;;;;;12.32;7.07;;;;;;;0.61;100.00;99769.31;5092368;28;20072;-40
2023/12/03 00:55:58;;;;;;;12.00;6.97;;;;;;;0.53;100.00;99766.88;5092513;28;20052;-40
2023/12/03 00:58:26;;;;;;;14.65;7.32;;;;;;;0.62;100.00;99738.66;5092133;28;20052;-40
2023/12/03 01:00:55;;;;;;;13.57;7.25;;;;;;;0.44;100.00;99751.38;5092269;28;20055;-42
2023/12/03 01:03:26;;;;;;;13.45;7.28;;;;;;;0.54;100.00;99752.84;5091950;28;20051;-42
2023/12/03 01:05:55;;;;;;;11.68;6.40;;;;;;;0.65;100.00;99762.19;5092064;28;20048;-40
2023/12/03 01:08:25;;;;;;;12.70;7.03;;;;;;;0.50;100.00;99776.63;5092128;28;20048;-41
2023/12/03 01:10:54;;;;;;;12.30;7.63;;;;;;;0.53;100.00;99772.13;5091988;28;20055;-41
2023/12/03 01:13:24;;;;;;;11.07;6.35;;;;;;;0.53;100.00;99797.50;5092115;28;20051;-41
2023/12/03 01:15:52;;;;;;;11.93;7.25;;;;;;;0.73;100.00;99797.84;5091876;28;20060;-41
2023/12/03 01:18:21;;;;;;;13.43;6.45;;;;;;;0.65;100.00;99817.31;5091492;28;20091;-41
2023/12/03 01:20:51;;;;;;;13.82;7.70;;;;;;;0.36;100.00;99807.59;5091526;28;20055;-41
2023/12/03 01:23:19;;;;;;;14.05;8.02;;;;;;;0.43;100.00;99817.88;5091512;28;20457;-43
2023/12/03 01:25:47;;;;;;;14.25;8.07;;;;;;;0.61;100.00;99816.56;5091284;28;20056;-42
2023/12/03 01:28:19;;;;;;;15.35;8.48;;;;;;;0.60;100.00;99819.22;5092600;28;20048;-44
2023/12/03 01:30:48;;;;;;;14.20;7.80;;;;;;;0.60;100.00;99824.47;5096112;28;20048;-42
2023/12/03 01:33:17;;;;;;;14.60;8.15;;;;;;;0.67;100.00;99842.63;5095624;28;20127;-41
2023/12/03 01:35:45;;;;;;;12.40;7.53;;;;;;;0.78;100.00;99842.38;5095612;28;20112;-43
2023/12/03 01:38:14;;;;;;;12.93;7.90;;;;;;;0.65;100.00;99854.94;5095715;28;20052;-41
2023/12/03 01:40:52;;;;;;;14.43;7.63;;;;;;;0.60;100.00;99835.84;5096109;28;20040;-42
2023/12/03 01:43:20;;;;;;;13.55;8.10;;;;;;;0.57;100.00;99834.13;5096729;28;20224;-41
2023/12/03 01:45:49;;;;;;;14.50;8.15;;;;;;;0.76;100.00;99852.00;5096413;28;20128;-47
2023/12/03 01:48:20;;;;;;;14.80;8.15;;;;;;;0.84;100.00;99856.16;5095978;28;20104;-42
2023/12/03 01:50:49;;;;;;;16.08;7.97;;;;;;;0.72;100.00;99867.00;5096176;28;20040;-44
2023/12/03 01:53:23;;;;;;;12.30;6.68;;;;;;;0.50;100.00;99900.81;5096598;28;20550;-42
2023/12/03 01:55:54;;;;;;;13.23;7.95;;;;;;;0.52;100.00;99906.88;5094871;28;20404;-42
2023/12/03 01:58:22;;;;;;;14.07;8.45;;;;;;;0.51;100.00;99907.78;5094438;28;20485;-41
2023/12/03 02:00:50;;;;;;;13.70;8.10;;;;;;;0.52;100.00;99914.75;5093232;28;20070;-41
2023/12/03 02:03:19;;;;;;;14.48;8.25;;;;;;;0.68;100.00;99922.25;5094623;28;20048;-41
2023/12/03 02:05:49;;;;;;;12.90;7.03;;;;;;;0.43;100.00;99929.88;5094340;28;20051;-41
2023/12/03 02:08:17;;;;;;;13.93;7.68;;;;;;;0.56;100.00;99937.38;5095247;28;20048;-43
2023/12/03 02:10:47;;;;;;;13.68;7.93;;;;;;;0.50;100.00;99945.44;5095281;28;20059;-40
2023/12/03 02:13:16;;;;;;;13.85;7.65;;;;;;;0.48;100.00;99947.22;5094735;28;20052;-41
2023/12/03 02:15:45;;;;;;;13.45;7.90;;;;;;;0.47;100.00;99949.88;5093090;28;20070;-46
2023/12/03 02:18:15;;;;;;;14.02;7.70;;;;;;;0.60;100.00;99968.84;5094764;28;20044;-40
2023/12/03 02:20:44;;;;;;;12.52;7.28;;;;;;;0.28;100.00;99954.69;5095548;28;20044;-41
2023/12/03 02:23:14;;;;;;;16.60;7.68;;;;;;;0.41;100.00;99956.16;5093295;28;20472;-42
2023/12/03 02:25:43;;;;;;;16.60;8.40;;;;;;;0.47;100.00;99949.88;5094211;28;20059;-41
2023/12/03 02:28:11;;;;;;;13.55;8.43;;;;;;;0.28;100.00;99955.53;5092758;28;20056;-41
2023/12/03 02:30:41;;;;;;;13.32;8.48;;;;;;;0.45;100.00;99955.16;5094371;28;20135;-41
2023/12/03 02:33:09;;;;;;;16.48;9.02;;;;;;;0.29;100.00;99972.19;5094574;28;20110;-41
2023/12/03 02:35:38;;;;;;;13.65;8.50;;;;;;;0.49;100.00;99976.97;5094496;28;20044;-42
2023/12/03 02:38:06;;;;;;;13.85;7.53;;;;;;;0.41;100.00;99961.38;5094729;28;20040;-42
2023/12/03 02:40:38;;;;;;;15.98;8.05;;;;;;;0.43;100.00;99970.09;5094038;28;20427;-42
2023/12/03 02:43:06;;;;;;;13.02;7.85;;;;;;;0.44;100.00;99955.19;5094515;28;20052;-41
2023/12/03 02:45:35;;;;;;;13.68;7.75;;;;;;;0.54;100.00;99970.69;5094178;28;20059;-41
2023/12/03 02:48:04;;;;;;;13.07;7.95;;;;;;;0.46;100.00;99985.75;5094239;28;20450;-41
2023/12/03 02:50:32;;;;;;;13.90;8.65;;;;;;;0.44;100.00;99979.69;5094441;28;20390;-40
2023/12/03 02:53:01;;;;;;;13.32;8.25;;;;;;;0.32;100.00;99993.09;5094584;28;20040;-42
2023/12/03 02:55:30;;;;;;;14.65;8.27;;;;;;;0.24;100.00;99989.75;5094038;28;20048;-43
2023/12/03 02:58:00;;;;;;;13.07;7.82;;;;;;;0.26;100.00;99987.97;5094256;28;20044;-41
2023/12/03 03:00:28;;;;;;;13.23;7.85;;;;;;;0.33;100.00;100005.31;5093867;28;20485;-41
2023/12/03 03:02:56;;;;;;;14.50;7.80;;;;;;;0.46;100.00;100027.72;5093701;28;20044;-41
2023/12/03 03:05:26;;;;;;;13.27;7.72;;;;;;;0.32;100.00;100039.44;5093054;28;20544;-43
2023/12/03 03:07:55;;;;;;;11.57;7.30;;;;;;;0.31;100.00;100054.31;5092969;28;20048;-42
2023/12/03 03:10:23;;;;;;;13.77;7.93;;;;;;;0.33;100.00;100076.16;5094100;28;20044;-42
2023/12/03 03:12:51;;;;;;;14.15;7.80;;;;;;;0.13;100.00;100073.06;5094355;28;20055;-40
2023/12/03 03:15:22;;;;;;;13.70;7.60;;;;;;;0.11;100.00;100043.41;5094208;28;20485;-42
2023/12/03 03:17:51;;;;;;;11.75;7.47;;;;;;;-0.09;100.00;100055.16;5094134;28;20051;-40
2023/12/03 03:20:22;;;;;;;15.15;7.80;;;;;;;-0.13;100.00;100057.84;5093965;28;20044;-40
2023/12/03 03:22:51;;;;;;;12.82;7.50;;;;;;;-0.04;100.00;100078.66;5093625;28;20405;-44
2023/12/03 03:25:19;;;;;;;13.38;7.85;;;;;;;0.12;100.00;100079.22;5093336;28;20470;-42
2023/12/03 03:27:48;;;;;;;11.20;6.95;;;;;;;0.01;100.00;100099.56;5093469;28;20055;-41
2023/12/03 03:30:16;;;;;;;13.20;7.63;;;;;;;0.10;100.00;100091.50;5093841;28;20044;-41
2023/12/03 03:32:49;;;;;;;13.25;7.72;;;;;;;0.27;100.00;100098.09;5093453;28;20055;-41
2023/12/03 03:35:17;;;;;;;13.00;7.47;;;;;;;0.20;100.00;100106.16;5093536;28;20511;-43
2023/12/03 03:37:46;;;;;;;13.27;7.03;;;;;;;0.12;100.00;100095.81;5093969;28;20134;-42
2023/12/03 03:40:15;;;;;;;12.80;7.53;;;;;;;0.06;100.00;100113.44;5093326;28;20052;-41
2023/12/03 03:42:43;;;;;;;12.05;7.45;;;;;;;0.13;100.00;100133.41;5092922;28;20040;-41
2023/12/03 03:45:12;;;;;;;11.38;6.63;;;;;;;0.23;100.00;100129.69;5092828;28;20044;-41
2023/12/03 03:47:40;;;;;;;12.43;7.13;;;;;;;0.14;100.00;100141.25;5092603;28;20164;-41
2023/12/03 03:50:11;;;;;;;13.57;7.00;;;;;;;0.15;100.00;100142.97;5092448;28;20126;-41
2023/12/03 03:52:39;;;;;;;10.65;6.40;;;;;;;0.11;100.00;100143.06;5092137;28;20044;-42
2023/12/03 03:55:08;;;;;;;11.27;6.50;;;;;;;0.08;100.00;100151.84;5092275;28;20101;-43
2023/12/03 03:57:36;;;;;;;11.80;6.78;;;;;;;0.19;100.00;100160.38;5092149;28;20134;-42
2023/12/03 04:00:06;;;;;;;12.48;7.18;;;;;;;0.08;100.00;100169.31;5091938;28;20062;-42
2023/12/03 04:02:35;;;;;;;12.00;6.82;;;;;;;-0.02;100.00;100164.25;5091009;28;20357;-41
2023/12/03 04:05:04;;;;;;;11.55;6.90;;;;;;;-0.06;100.00;100170.47;5092019;28;20534;-42
2023/12/03 04:07:33;;;;;;;13.18;6.97;;;;;;;0.04;100.00;100176.41;5091944;28;20040;-41
2023/12/03 04:10:02;;;;;;;14.15;7.43;;;;;;;0.04;100.00;100183.41;5092288;28;20044;-41
2023/12/03 04:12:33;;;;;;;13.80;7.38;;;;;;;0.02;100.00;100182.56;5092164;28;20050;-42
2023/12/03 04:15:01;;;;;;;14.52;7.30;;;;;;;0.06;100.00;100179.00;5092238;28;20097;-40
2023/12/03 04:17:33;;;;;;;10.20;6.05;;;;;;;-0.03;100.00;100180.88;5092198;28;20052;-40
2023/12/03 04:20:01;;;;;;;11.20;6.80;;;;;;;0.10;100.00;100183.31;5091876;28;20059;-41
2023/12/03 04:22:29;;;;;;;11.30;5.78;;;;;;;-0.14;100.00;100190.69;5091955;28;20090;-42
2023/12/03 04:24:59;;;;;;;10.48;5.82;;;;;;;-0.24;100.00;100211.88;5091779;28;20051;-41
2023/12/03 04:27:30;;;;;;;10.85;6.15;;;;;;;-0.47;100.00;100207.88;5091883;28;20454;-42
2023/12/03 04:29:59;;;;;;;11.05;5.95;;;;;;;-0.33;100.00;100218.13;5091984;28;20054;-42
2023/12/03 04:32:28;;;;;;;11.55;6.35;;;;;;;-0.09;100.00;100217.72;5091945;28;20082;-41
2023/12/03 04:34:56;;;;;;;12.10;6.47;;;;;;;-0.27;100.00;100239.00;5091727;28;20044;-41
2023/12/03 04:37:24;;;;;;;10.60;6.22;;;;;;;-0.45;100.00;100213.09;5091768;28;20044;-41
2023/12/03 04:39:53;;;;;;;10.73;6.20;;;;;;;-0.53;100.00;100235.91;5091719;28;20044;-41
2023/12/03 04:42:23;;;;;;;11.30;6.07;;;;;;;-0.13;100.00;100226.50;5091932;28;20071;-41
2023/12/03 04:44:51;;;;;;;11.27;6.28;;;;;;;-0.30;100.00;100245.13;5091764;28;20377;-41
2023/12/03 04:47:20;;;;;;;12.73;6.22;;;;;;;-0.31;100.00;100248.66;5091928;28;20133;-41
2023/12/03 04:49:48;;;;;;;11.43;6.30;;;;;;;-0.19;100.00;100247.63;5092214;28;20051;-43
2023/12/03 04:52:16;;;;;;;11.23;5.95;;;;;;;-0.50;100.00;100255.06;5091768;28;20479;-42
2023/12/03 04:54:44;;;;;;;10.07;6.00;;;;;;;-0.42;100.00;100261.06;5091745;28;20044;-43
2023/12/03 04:57:13;;;;;;;11.10;6.22;;;;;;;-0.50;100.00;100268.16;5091952;28;20382;-41
2023/12/03 04:59:43;;;;;;;11.63;6.35;;;;;;;-0.30;100.00;100275.72;5091623;28;20048;-41
2023/12/03 05:02:11;;;;;;;11.85;6.10;;;;;;;-0.20;100.00;100269.44;5092880;28;20058;-41
2023/12/03 05:04:40;;;;;;;11.10;6.20;;;;;;;-0.37;100.00;100280.22;5095628;28;20048;-41
2023/12/03 05:07:08;;;;;;;10.95;6.18;;;;;;;-0.52;100.00;100271.72;5095272;28;20817;-41
2023/12/03 05:09:39;;;;;;;11.73;6.47;;;;;;;-0.55;100.00;100285.72;5095971;28;20051;-41
2023/12/03 05:12:08;;;;;;;11.50;6.50;;;;;;;-0.56;100.00;100294.47;5095579;28;20040;-42
2023/12/03 05:14:37;;;;;;;13.80;7.43;;;;;;;-0.61;100.00;100296.28;5095711;28;20054;-41
2023/12/03 05:17:07;;;;;;;12.75;6.85;;;;;;;-0.77;100.00;100308.75;5095788;28;20159;-41
2023/12/03 05:19:36;;;;;;;14.10;6.93;;;;;;;-0.54;100.00;100311.03;5093994;28;20044;-41
2023/12/03 05:22:05;;;;;;;14.02;6.82;;;;;;;-0.48;100.00;100315.31;5095606;28;20103;-42
2023/12/03 05:24:33;;;;;;;13.60;7.15;;;;;;;-0.55;100.00;100316.31;5095311;28;20059;-41
2023/12/03 05:27:01;;;;;;;14.00;7.40;;;;;;;-0.47;100.00;100333.66;5095453;28;20040;-41
2023/12/03 05:29:30;;;;;;;12.50;6.85;;;;;;;-0.47;100.00;100333.66;5095094;28;20457;-40
2023/12/03 05:31:59;;;;;;;16.55;7.28;;;;;;;-0.81;100.00;100335.84;5094983;28;20139;-40
2023/12/03 05:34:28;;;;;;;14.18;7.20;;;;;;;-0.41;100.00;100341.41;5094878;28;20052;-42
2023/12/03 05:36:59;;;;;;;13.32;6.93;;;;;;;-0.38;100.00;100343.16;5094902;28;20059;-51
2023/12/03 05:39:28;;;;;;;12.30;6.97;;;;;;;-0.43;100.00;100344.94;5095317;28;20071;-42
2023/12/03 05:42:00;;;;;;;13.93;7.50;;;;;;;-0.25;100.00;100351.69;5094800;28;20048;-41
2023/12/03 05:44:31;;;;;;;13.38;7.80;;;;;;;-0.53;100.00;100346.84;5095397;28;20070;-41
2023/12/03 05:46:59;;;;;;;13.13;7.68;;;;;;;-0.38;100.00;100356.25;5094657;28;20408;-41
2023/12/03 05:49:29;;;;;;;12.90;7.40;;;;;;;-0.62;100.00;100352.19;5094887;28;20051;-42
2023/12/03 05:51:59;;;;;;;15.50;8.13;;;;;;;-0.64;100.00;100365.31;5094868;28;20063;-42
2023/12/03 05:54:27;;;;;;;14.98;7.65;;;;;;;-0.59;100.00;100371.34;5094673;28;20477;-42
2023/12/03 05:56:55;;;;;;;15.00;7.35;;;;;;;-0.61;100.00;100378.38;5094700;28;20044;-47
2023/12/03 05:59:24;;;;;;;13.15;7.30;;;;;;;-0.61;100.00;100386.22;5094627;28;20055;-42
2023/12/03 06:01:58;;;;;;;12.30;6.90;;;;;;;-0.68;100.00;100374.09;5094616;28;20056;-43
2023/12/03 06:04:26;;;;;;;10.90;6.07;;;;;;;-1.05;100.00;100373.69;5094375;28;20097;-41
2023/12/03 06:06:56;;;;;;;12.85;7.05;;;;;;;-0.94;100.00;100368.31;5094434;28;20056;-42
2023/12/03 06:09:28;;;;;;;12.93;7.40;;;;;;;-0.77;100.00;100376.84;5093205;28;20052;-42
2023/12/03 06:11:56;;;;;;;12.75;7.05;;;;;;;-0.59;100.00;100375.72;5094552;28;20048;-42
2023/12/03 06:14:24;;;;;;;14.30;8.13;;;;;;;-0.49;100.00;100381.72;5093698;28;20139;-40
2023/12/03 06:16:53;;;;;;;13.32;7.15;;;;;;;-0.71;100.00;100384.59;5094597;28;20040;-41
2023/12/03 06:19:21;;;;;;;13.27;7.18;;;;;;;-0.62;100.00;100392.34;5094685;28;20040;-41
2023/12/03 06:21:50;;;;;;;13.15;6.88;;;;;;;-0.63;100.00;100398.47;5094374;28;20052;-42
2023/12/03 06:24:20;;;;;;;14.60;8.00;;;;;;;-0.67;100.00;100399.44;5094073;28;20043;-41
2023/12/03 06:26:49;;;;;;;14.15;7.45;;;;;;;-0.74;100.00;100405.63;5094351;28;20040;-42
2023/12/03 06:29:17;;;;;;;15.27;7.28;;;;;;;-0.60;100.00;100408.91;5094219;28;20508;-42
2023/12/03 06:31:45;;;;;;;13.63;7.45;;;;;;;-0.66;100.00;100416.88;5094364;28;20076;-42
2023/12/03 06:34:15;;;;;;;12.05;7.05;;;;;;;-0.87;100.00;100420.59;5093932;28;20047;-42
2023/12/03 06:36:44;;;;;;;13.18;7.00;;;;;;;-0.59;100.00;100426.38;5093922;28;20059;-43
2023/12/03 06:39:12;;;;;;;12.75;6.38;;;;;;;-0.70;100.00;100437.88;5093607;28;20126;-42
2023/12/03 06:41:43;;;;;;;13.88;7.22;;;;;;;-0.56;100.00;100425.50;5093677;28;20051;-42
2023/12/03 06:44:12;;;;;;;14.18;7.82;;;;;;;-0.41;100.00;100429.66;5093492;28;20048;-41
2023/12/03 06:46:41;;;;;;;13.23;7.15;;;;;;;-0.50;100.00;100442.88;5093370;28;20040;-41
2023/12/03 06:49:11;;;;;;;10.45;6.50;;;;;;;-0.74;100.00;100444.91;5093307;28;20052;-42
2023/12/03 06:51:40;;;;;;;10.98;6.20;;;;;;;-0.76;100.00;100437.97;5088334;28;20048;-42
2023/12/03 06:54:09;;;;;;;12.40;6.90;;;;;;;-0.76;100.00;100449.31;5073487;28;20566;-42
2023/12/03 06:56:37;;;;;;;13.52;7.15;;;;;;;-0.68;100.00;100452.66;5073396;28;20102;-42
2023/12/03 06:59:08;;;;;;;14.30;7.28;;;;;;;-0.92;100.00;100448.59;5089780;28;20105;-41
2023/12/03 07:01:37;;;;;;;15.20;6.78;;;;;;;-0.94;100.00;100459.97;5092566;28;20101;-47
2023/12/03 07:04:06;;;;;;;12.77;6.82;;;;;;;-0.57;100.00;100451.72;5093428;28;20044;-42
2023/12/03 07:06:34;;;;;;;14.75;7.22;;;;;;;-0.61;100.00;100477.06;5092399;28;20131;-40
2023/12/03 07:09:02;;;;;;;12.57;6.72;;;;;;;-0.54;100.00;100460.41;5092814;28;20481;-41
2023/12/03 07:11:51;;;;;;;13.38;6.95;;;;;;;-0.45;100.00;100454.19;5093848;28;20062;-41
2023/12/03 07:14:20;;;;;;;13.10;6.60;;;;;;;-0.47;100.00;100471.69;5093496;28;20046;-49
2023/12/03 07:16:51;;;;;;;12.15;6.80;;;;;;;-0.24;100.00;100480.13;5092833;28;20055;-43
2023/12/03 07:19:19;;;;;;;12.25;6.82;;;;;;;-0.47;100.00;100455.97;5093166;28;20143;-42
2023/12/03 07:21:48;;;;;;;12.75;7.13;;;;;;;-0.49;100.00;100465.56;5092957;28;20050;-42
2023/12/03 07:24:17;;;;;;;12.63;6.72;;;;;;;-0.40;100.00;100482.06;5094048;28;20130;-42
2023/12/03 07:26:49;;;;;;;15.10;6.88;;;;;;;-0.34;100.00;100478.50;5092962;28;20052;-42
2023/12/03 07:29:20;;;;;;;11.63;6.68;;;;;;;-0.47;100.00;100487.41;5093762;28;20044;-42
2023/12/03 07:31:50;;;;;;;12.32;6.75;;;;;;;-0.35;100.00;100508.22;5088354;28;20555;-44
2023/12/03 07:34:18;;;;;;;13.82;6.57;;;;;;;-0.44;100.00;100487.34;5073354;28;20070;-41
2023/12/03 07:36:46;;;;;;;12.32;6.50;;;;;;;-0.53;100.00;100482.22;5083195;28;20453;-41
2023/12/03 07:39:14;;;;;;;13.02;6.43;;;;;;;-0.45;100.00;100490.88;5072692;28;20933;-40
2023/12/03 07:41:50;;;;;;;13.65;6.80;;;;;;;-0.53;100.00;100513.66;5072383;28;20128;-41
2023/12/03 07:44:20;;;;;;;13.02;6.78;;;;;;;-0.40;100.00;100520.50;5073164;28;20044;-40
2023/12/03 07:46:49;;;;;;;11.02;6.45;;;;;;;-0.56;100.00;100514.56;5073935;28;20118;-42
2023/12/03 07:49:18;;;;;;;13.80;6.35;;;;;;;-0.36;100.00;100522.22;5073855;28;20056;-41
2023/12/03 07:51:47;;;;;;;12.13;6.30;;;;;;;-0.52;100.00;100542.47;5073533;28;20048;-41
2023/12/03 07:54:17;;;;;;;14.07;6.53;;;;;;;-0.47;100.00;100542.44;5070774;28;20417;-41
2023/12/03 07:56:46;;;;;;;13.75;6.68;;;;;;;-0.43;100.00;100544.13;5070901;28;20049;-43
2023/12/03 07:59:14;;;;;;;15.57;7.22;;;;;;;-0.51;100.00;100553.81;5071959;28;20132;-42
2023/12/03 08:01:48;;;;;;;13.43;6.60;;;;;;;-0.34;100.00;100558.00;5071236;28;20101;-43
2023/12/03 08:04:16;;;;;;;12.48;6.80;;;;;;;-0.64;100.00;100564.44;5071654;28;20052;-42
2023/12/03 08:06:44;;;;;;;13.60;6.95;;;;;;;-0.63;100.00;100587.13;5071539;28;20045;-40
2023/12/03 08:09:13;;;;;;;12.35;6.32;;;;;;;-0.73;100.00;100574.13;5071717;28;20051;-41
2023/12/03 08:11:41;;;;;;;16.25;8.07;;;;;;;-0.47;100.00;100592.22;5071528;28;20052;-41
2023/12/03 08:14:13;;;;;;;14.65;7.13;;;;;;;-0.20;100.00;100577.94;5071781;28;20140;-41
2023/12/03 08:16:41;;;;;;;16.48;7.30;;;;;;;-0.41;100.00;100587.78;5083077;28;20064;-41
2023/12/03 08:19:14;;;;;;;13.10;6.63;;;;;;;-0.34;100.00;100583.34;5091560;28;20044;-41
2023/12/03 08:21:43;;;;;;;12.60;6.60;;;;;;;-0.30;100.00;100600.78;5091511;28;20097;-42
2023/12/03 08:24:11;;;;;;;12.10;6.88;;;;;;;-0.07;100.00;100606.66;5091740;28;20044;-44
2023/12/03 08:26:40;;;;;;;12.70;6.53;;;;;;;-0.35;100.00;100616.56;5091533;28;20043;-40
2023/12/03 08:29:09;;;;;;;15.02;7.45;;;;;;;-0.56;100.00;100608.91;5091989;28;20048;-41
2023/12/03 08:31:37;;;;;;;14.23;7.00;;;;;;;-0.37;100.00;100615.72;5091997;28;20040;-42
2023/12/03 08:34:07;;;;;;;10.95;6.20;;;;;;;-0.59;100.00;100607.16;5091452;28;20128;-42
2023/12/03 08:36:38;;;;;;;12.70;6.25;;;;;;;-0.43;100.00;100628.00;5091523;28;20040;-42
2023/12/03 08:39:07;;;;;;;11.82;6.32;;;;;;;-0.25;100.00;100619.97;5091460;28;20049;-42
2023/12/03 08:41:37;;;;;;;17.23;6.63;;;;;;;-0.17;100.00;100639.09;5091632;28;20055;-40
2023/12/03 08:44:06;;;;;;;16.48;6.95;;;;;;;-0.06;100.00;100637.22;5091678;28;20083;-42
2023/12/03 08:46:34;;;;;;;12.63;7.03;;;;;;;0.09;100.00;100645.81;5091351;28;20048;-41
2023/12/03 08:49:02;;;;;;;11.88;6.80;;;;;;;-0.46;100.00;100628.91;5091835;28;20443;-42
2023/12/03 08:51:31;;;;;;;11.95;6.65;;;;;;;-0.62;100.00;100654.34;5091720;28;20048;-41
2023/12/03 08:54:01;;;;;;;16.42;7.28;;;;;;;-0.60;100.00;100644.72;5091874;28;20048;-42
2023/12/03 08:56:29;;;;;;;12.43;6.28;;;;;;;-0.34;100.00;100646.25;5091980;28;20516;-41
2023/12/03 08:58:58;;;;;;;14.75;6.82;;;;;;;-0.05;100.00;100640.72;5091429;28;20040;-41
2023/12/03 09:01:26;;;;;;;13.63;7.05;;;;;;;0.06;100.00;100640.59;5091445;28;20098;-42
2023/12/03 09:03:57;;;;;;;11.10;6.03;;;;;;;-0.02;100.00;100659.91;5091336;28;20143;-41
2023/12/03 09:06:27;;;;;;;11.75;6.50;;;;;;;-0.02;100.00;100653.78;5091449;28;20097;-41
2023/12/03 09:08:56;;;;;;;15.60;8.18;;;;;;;0.04;100.00;100650.25;5091374;28;20048;-42
2023/12/03 09:11:26;;;;;;;13.63;6.55;;;;;;;-0.10;100.00;100659.09;5091067;28;20040;-41
2023/12/03 09:13:59;;;;;;;12.57;6.88;;;;;;;0.01;100.00;100653.78;5091401;28;20054;-40
2023/12/03 09:16:30;;;;;;;11.45;6.20;;;;;;;0.24;100.00;100653.50;5091393;28;20084;-42
2023/12/03 09:18:59;;;;;;;12.18;6.68;;;;;;;0.17;100.00;100654.47;5091156;28;20419;-40
2023/12/03 09:21:27;;;;;;;11.65;6.38;;;;;;;0.17;100.00;100655.31;5091201;28;20135;-43
2023/12/03 09:23:56;;;;;;;13.38;6.70;;;;;;;0.21;100.00;100658.81;5090656;28;20473;-42
2023/12/03 09:26:26;;;;;;;13.95;7.07;;;;;;;0.26;100.00;100667.47;5090763;28;20113;-41
2023/12/03 09:28:54;;;;;;;15.85;6.50;;;;;;;0.14;100.00;100644.00;5090594;28;20059;-41
2023/12/03 09:31:23;;;;;;;13.30;7.13;;;;;;;0.31;100.00;100651.69;5091700;28;20136;-42
2023/12/03 09:33:51;;;;;;;11.35;6.35;;;;;;;0.37;100.00;100657.72;5090710;28;20040;-42
2023/12/03 09:36:19;;;;;;;12.35;6.35;;;;;;;0.14;100.00;100650.13;5091508;28;20470;-42
2023/12/03 09:38:48;;;;;;;12.05;6.07;;;;;;;0.49;100.00;100660.22;5091155;28;20097;-41
2023/12/03 09:41:20;;;;;;;11.05;6.43;;;;;;;0.27;100.00;100645.59;5091651;28;20127;-41
2023/12/03 09:43:55;;;;;;;11.43;6.30;;;;;;;0.60;100.00;100644.31;5091134;28;20148;-41
2023/12/03 09:46:29;;;;;;;11.45;6.25;;;;;;;0.60;100.00;100648.69;5091267;28;20044;-43
2023/12/03 09:49:01;;;;;;;9.43;5.35;;;;;;;0.23;100.00;100636.03;5091397;28;20058;-43
2023/12/03 09:51:31;;;;;;;11.85;6.30;;;;;;;0.23;100.00;100654.41;5094640;28;20101;-41
2023/12/03 09:54:01;;;;;;;9.95;5.47;;;;;;;0.18;100.00;100674.56;5094618;28;20054;-41
2023/12/03 09:56:32;;;;;;;10.57;5.53;;;;;;;0.15;100.00;100666.72;5094286;28;20090;-43
2023/12/03 09:59:02;;;;;;;11.15;5.57;;;;;;;0.41;100.00;100642.81;5094340;28;20052;-42
2023/12/03 10:01:32;;;;;;;10.27;5.45;;;;;;;0.48;100.00;100650.59;5094338;28;20044;-41
2023/12/03 10:04:00;;;;;;;9.80;5.45;;;;;;;0.62;100.00;100662.66;5094090;28;20047;-42
2023/12/03 10:06:29;;;;;;;12.20;6.13;;;;;;;0.75;100.00;100661.59;5094186;28;20059;-42
2023/12/03 10:08:58;;;;;;;13.10;6.53;;;;;;;0.70;100.00;100660.81;5094133;28;20044;-43
2023/12/03 10:11:28;;;;;;;10.38;5.80;;;;;;;0.75;100.00;100653.72;5094339;28;20378;-43
2023/12/03 10:14:01;;;;;;;10.25;5.45;;;;;;;1.00;100.00;100649.00;5094452;28;20044;-42
2023/12/03 10:16:31;;;;;;;12.38;5.72;;;;;;;0.93;100.00;100652.59;5093848;28;20069;-43
2023/12/03 10:18:59;;;;;;;10.60;5.93;;;;;;;1.09;100.00;100643.63;5094155;28;20041;-41
2023/12/03 10:21:28;;;;;;;10.63;5.88;;;;;;;1.11;100.00;100642.69;5093855;28;20516;-42
2023/12/03 10:23:58;;;;;;;11.27;6.15;;;;;;;1.08;100.00;100652.41;5093899;28;20139;-42
2023/12/03 10:26:28;;;;;;;11.23;6.00;;;;;;;1.00;100.00;100639.38;5094119;28;20127;-42
2023/12/03 10:28:56;;;;;;;11.55;5.93;;;;;;;0.92;100.00;100638.59;5093584;28;20055;-41
2023/12/03 10:31:25;;;;;;;13.02;5.53;;;;;;;1.13;100.00;100648.78;5094396;28;20083;-43
2023/12/03 10:33:54;;;;;;;10.20;5.85;;;;;;;1.25;100.00;100652.97;5093736;28;20051;-42
2023/12/03 10:36:23;;;;;;;16.50;8.15;;;;;;;1.25;100.00;100650.34;5094049;28;20067;-41
2023/12/03 10:38:53;;;;;;;12.18;6.95;;;;;;;1.39;100.00;100658.03;5093638;28;20097;-40
2023/12/03 10:41:24;;;;;;;10.90;6.07;;;;;;;1.42;100.00;100671.13;5093323;28;20139;-42
2023/12/03 10:43:52;;;;;;;10.48;6.30;;;;;;;1.43;100.00;100672.84;5093350;28;20756;-42
2023/12/03 10:46:20;;;;;;;10.45;5.80;;;;;;;1.42;100.00;100679.00;5094001;28;20113;-42
2023/12/03 10:48:50;;;;;;;10.90;5.88;;;;;;;1.00;100.00;100681.41;5093376;28;20047;-41
2023/12/03 10:51:20;;;;;;;10.25;6.10;;;;;;;0.90;100.00;100690.31;5093651;28;20171;-42
2023/12/03 10:53:48;;;;;;;10.10;6.22;;;;;;;1.15;100.00;100683.78;5094565;28;20055;-42
2023/12/03 10:56:18;;;;;;;12.50;6.38;;;;;;;1.17;100.00;100698.69;5093890;28;20095;-43
2023/12/03 10:58:48;;;;;;;10.80;6.35;;;;;;;1.02;100.00;100687.50;5093856;28;20088;-42
2023/12/03 11:01:21;;;;;;;11.32;6.20;;;;;;;1.41;100.00;100696.53;5093296;28;20151;-43
2023/12/03 11:03:57;;;;;;;13.90;7.38;;;;;;;1.71;100.00;100708.31;5094361;28;20443;-43
2023/12/03 11:06:27;;;;;;;10.25;6.03;;;;;;;1.50;100.00;100700.78;5093761;28;20044;-44
2023/12/03 11:08:57;;;;;;;12.65;6.38;;;;;;;1.19;100.00;100707.41;5094096;28;20143;-42
2023/12/03 11:11:26;;;;;;;12.88;6.22;;;;;;;1.44;100.00;100714.88;5093266;28;20048;-41
2023/12/03 11:13:56;;;;;;;11.50;5.82;;;;;;;1.20;100.00;100704.75;5093117;28;20047;-42
2023/12/03 11:16:30;;;;;;;9.55;5.95;;;;;;;0.83;100.00;100717.53;5093179;28;20055;-41
2023/12/03 11:19:04;;;;;;;10.43;5.70;;;;;;;0.88;100.00;100720.97;5092863;28;20565;-43
2023/12/03 11:21:43;;;;;;;10.23;5.63;;;;;;;1.06;100.00;100715.47;5092575;28;20048;-43
2023/12/03 11:24:39;;;;;;;10.30;6.18;;;;;;;1.26;100.00;100725.69;5092416;28;20047;-43
2023/12/03 11:27:07;;;;;;;10.40;6.20;;;;;;;1.23;100.00;100735.38;5092672;28;20047;-42